sensor_id;sensor_type;location;lat;lon;timestamp;P1;durP1;ratioP1;P2;durP2;ratioP2
846;SDS011;410;48.954;9.474;2023-08-08T00:00:51;5.20;;;3.73;;
846;SDS011;410;48.954;9.474;2023-08-08T00:02:54;3.50;;;2.97;;
846;SDS011;410;48.954;9.474;2023-08-08T00:04:57;3.77;;;3.07;;
846;SDS011;410;48.954;9.474;2023-08-08T00:07:00;3.37;;;2.83;;
846;SDS011;410;48.954;9.474;2023-08-08T00:09:04;3.33;;;2.87;;
846;SDS011;410;48.954;9.474;2023-08-08T00:11:08;4.20;;;2.83;;
846;SDS011;410;48.954;9.474;2023-08-08T00:13:11;4.80;;;3.97;;
846;SDS011;410;48.954;9.474;2023-08-08T00:15:13;5.43;;;4.00;;
846;SDS011;410;48.954;9.474;2023-08-08T00:17:16;3.80;;;2.90;;
846;SDS011;410;48.954;9.474;2023-08-08T00:19:19;4.37;;;3.33;;
846;SDS011;410;48.954;9.474;2023-08-08T00:21:22;3.77;;;3.07;;
846;SDS011;410;48.954;9.474;2023-08-08T00:23:25;6.33;;;3.20;;
846;SDS011;410;48.954;9.474;2023-08-08T00:25:30;3.80;;;3.10;;
846;SDS011;410;48.954;9.474;2023-08-08T00:27:33;4.20;;;3.10;;
846;SDS011;410;48.954;9.474;2023-08-08T00:29:36;4.53;;;3.10;;
846;SDS011;410;48.954;9.474;2023-08-08T00:31:40;4.23;;;3.27;;
846;SDS011;410;48.954;9.474;2023-08-08T00:33:42;4.40;;;3.17;;
846;SDS011;410;48.954;9.474;2023-08-08T00:35:45;5.10;;;2.97;;
846;SDS011;410;48.954;9.474;2023-08-08T00:37:48;4.40;;;3.30;;
846;SDS011;410;48.954;9.474;2023-08-08T00:39:52;4.33;;;3.00;;
846;SDS011;410;48.954;9.474;2023-08-08T00:41:57;7.37;;;3.50;;
846;SDS011;410;48.954;9.474;2023-08-08T00:44:00;4.83;;;3.60;;
846;SDS011;410;48.954;9.474;2023-08-08T00:46:04;4.13;;;2.87;;
846;SDS011;410;48.954;9.474;2023-08-08T00:48:07;4.03;;;3.20;;
846;SDS011;410;48.954;9.474;2023-08-08T00:50:10;4.73;;;3.53;;
846;SDS011;410;48.954;9.474;2023-08-08T00:52:15;7.63;;;3.10;;
846;SDS011;410;48.954;9.474;2023-08-08T00:54:17;5.50;;;3.20;;
846;SDS011;410;48.954;9.474;2023-08-08T00:56:21;6.50;;;3.50;;
846;SDS011;410;48.954;9.474;2023-08-08T00:58:25;4.27;;;3.40;;
846;SDS011;410;48.954;9.474;2023-08-08T01:00:29;5.10;;;3.57;;
846;SDS011;410;48.954;9.474;2023-08-08T01:02:32;4.00;;;3.40;;
846;SDS011;410;48.954;9.474;2023-08-08T01:04:35;3.63;;;2.93;;
846;SDS011;410;48.954;9.474;2023-08-08T01:06:39;5.27;;;3.60;;
846;SDS011;410;48.954;9.474;2023-08-08T01:08:48;6.23;;;2.77;;
846;SDS011;410;48.954;9.474;2023-08-08T01:10:54;4.60;;;3.53;;
846;SDS011;410;48.954;9.474;2023-08-08T01:12:59;5.17;;;3.47;;
846;SDS011;410;48.954;9.474;2023-08-08T01:15:05;4.10;;;3.03;;
846;SDS011;410;48.954;9.474;2023-08-08T01:17:10;4.70;;;3.10;;
846;SDS011;410;48.954;9.474;2023-08-08T01:19:15;4.20;;;3.20;;
846;SDS011;410;48.954;9.474;2023-08-08T01:21:25;5.33;;;3.37;;
846;SDS011;410;48.954;9.474;2023-08-08T01:23:33;4.57;;;3.70;;
846;SDS011;410;48.954;9.474;2023-08-08T01:25:40;7.03;;;3.67;;
846;SDS011;410;48.954;9.474;2023-08-08T01:27:43;5.33;;;3.60;;
846;SDS011;410;48.954;9.474;2023-08-08T01:29:46;4.33;;;3.30;;
846;SDS011;410;48.954;9.474;2023-08-08T01:31:49;4.30;;;3.47;;
846;SDS011;410;48.954;9.474;2023-08-08T01:33:52;4.93;;;3.23;;
846;SDS011;410;48.954;9.474;2023-08-08T01:35:58;3.97;;;3.10;;
846;SDS011;410;48.954;9.474;2023-08-08T01:38:09;4.17;;;3.30;;
846;SDS011;410;48.954;9.474;2023-08-08T01:40:15;4.60;;;3.07;;
846;SDS011;410;48.954;9.474;2023-08-08T01:42:22;6.13;;;3.60;;
846;SDS011;410;48.954;9.474;2023-08-08T01:44:26;6.33;;;3.13;;
846;SDS011;410;48.954;9.474;2023-08-08T01:46:29;4.63;;;3.27;;
846;SDS011;410;48.954;9.474;2023-08-08T01:48:33;4.73;;;3.10;;
846;SDS011;410;48.954;9.474;2023-08-08T01:50:37;4.90;;;3.27;;
846;SDS011;410;48.954;9.474;2023-08-08T01:52:40;5.70;;;3.33;;
846;SDS011;410;48.954;9.474;2023-08-08T01:54:43;3.93;;;3.13;;
846;SDS011;410;48.954;9.474;2023-08-08T01:56:46;4.00;;;3.27;;
846;SDS011;410;48.954;9.474;2023-08-08T01:58:51;4.00;;;2.87;;
846;SDS011;410;48.954;9.474;2023-08-08T02:00:53;4.20;;;3.37;;
846;SDS011;410;48.954;9.474;2023-08-08T02:02:56;3.53;;;2.90;;
846;SDS011;410;48.954;9.474;2023-08-08T02:05:00;4.53;;;3.10;;
846;SDS011;410;48.954;9.474;2023-08-08T02:07:03;5.20;;;3.17;;
846;SDS011;410;48.954;9.474;2023-08-08T02:09:06;5.07;;;4.13;;
846;SDS011;410;48.954;9.474;2023-08-08T02:11:09;5.87;;;3.30;;
846;SDS011;410;48.954;9.474;2023-08-08T02:13:13;3.87;;;3.00;;
846;SDS011;410;48.954;9.474;2023-08-08T02:15:17;7.70;;;3.90;;
846;SDS011;410;48.954;9.474;2023-08-08T02:17:20;5.97;;;3.60;;
846;SDS011;410;48.954;9.474;2023-08-08T02:19:25;6.53;;;3.77;;
846;SDS011;410;48.954;9.474;2023-08-08T02:21:28;5.17;;;3.80;;
846;SDS011;410;48.954;9.474;2023-08-08T02:23:31;4.57;;;2.90;;
846;SDS011;410;48.954;9.474;2023-08-08T02:25:33;5.37;;;3.33;;
846;SDS011;410;48.954;9.474;2023-08-08T02:27:36;3.83;;;3.03;;
846;SDS011;410;48.954;9.474;2023-08-08T02:29:38;4.77;;;2.83;;
846;SDS011;410;48.954;9.474;2023-08-08T02:31:43;3.20;;;2.80;;
846;SDS011;410;48.954;9.474;2023-08-08T02:33:47;4.20;;;3.20;;
846;SDS011;410;48.954;9.474;2023-08-08T02:35:50;3.40;;;2.63;;
846;SDS011;410;48.954;9.474;2023-08-08T02:37:53;4.40;;;3.23;;
846;SDS011;410;48.954;9.474;2023-08-08T02:39:56;4.00;;;2.90;;
846;SDS011;410;48.954;9.474;2023-08-08T02:41:59;4.00;;;3.20;;
846;SDS011;410;48.954;9.474;2023-08-08T02:44:03;5.07;;;2.87;;
846;SDS011;410;48.954;9.474;2023-08-08T02:46:06;3.70;;;2.70;;
846;SDS011;410;48.954;9.474;2023-08-08T02:48:11;4.77;;;3.20;;
846;SDS011;410;48.954;9.474;2023-08-08T02:50:13;3.50;;;2.70;;
846;SDS011;410;48.954;9.474;2023-08-08T02:52:16;3.67;;;3.07;;
846;SDS011;410;48.954;9.474;2023-08-08T02:54:19;3.97;;;2.67;;
846;SDS011;410;48.954;9.474;2023-08-08T02:56:23;3.90;;;2.90;;
846;SDS011;410;48.954;9.474;2023-08-08T02:58:27;6.67;;;3.33;;
846;SDS011;410;48.954;9.474;2023-08-08T03:00:32;4.87;;;3.10;;
846;SDS011;410;48.954;9.474;2023-08-08T03:02:36;6.70;;;2.73;;
846;SDS011;410;48.954;9.474;2023-08-08T03:04:40;5.77;;;2.83;;
846;SDS011;410;48.954;9.474;2023-08-08T03:06:44;3.43;;;2.80;;
846;SDS011;410;48.954;9.474;2023-08-08T03:08:47;3.50;;;2.77;;
846;SDS011;410;48.954;9.474;2023-08-08T03:10:50;3.47;;;2.67;;
846;SDS011;410;48.954;9.474;2023-08-08T03:12:54;4.00;;;2.80;;
846;SDS011;410;48.954;9.474;2023-08-08T03:14:57;5.73;;;3.20;;
846;SDS011;410;48.954;9.474;2023-08-08T03:17:01;4.60;;;3.00;;
846;SDS011;410;48.954;9.474;2023-08-08T03:19:05;3.93;;;3.17;;
846;SDS011;410;48.954;9.474;2023-08-08T03:21:09;4.17;;;2.93;;
846;SDS011;410;48.954;9.474;2023-08-08T03:23:12;5.13;;;3.23;;
846;SDS011;410;48.954;9.474;2023-08-08T03:25:15;4.43;;;2.97;;
846;SDS011;410;48.954;9.474;2023-08-08T03:27:18;5.30;;;4.00;;
846;SDS011;410;48.954;9.474;2023-08-08T03:29:25;8.70;;;3.47;;
846;SDS011;410;48.954;9.474;2023-08-08T03:31:30;8.00;;;4.27;;
846;SDS011;410;48.954;9.474;2023-08-08T03:33:37;5.47;;;4.23;;
846;SDS011;410;48.954;9.474;2023-08-08T03:35:43;4.00;;;3.23;;
846;SDS011;410;48.954;9.474;2023-08-08T03:37:48;5.00;;;3.77;;
846;SDS011;410;48.954;9.474;2023-08-08T03:39:51;5.70;;;4.10;;
846;SDS011;410;48.954;9.474;2023-08-08T03:41:54;4.90;;;3.63;;
846;SDS011;410;48.954;9.474;2023-08-08T03:43:58;4.50;;;3.73;;
846;SDS011;410;48.954;9.474;2023-08-08T03:46:01;4.97;;;3.50;;
846;SDS011;410;48.954;9.474;2023-08-08T03:48:04;4.47;;;3.70;;
846;SDS011;410;48.954;9.474;2023-08-08T03:50:08;4.47;;;3.73;;
846;SDS011;410;48.954;9.474;2023-08-08T03:52:12;5.70;;;4.30;;
846;SDS011;410;48.954;9.474;2023-08-08T03:54:17;4.53;;;3.50;;
846;SDS011;410;48.954;9.474;2023-08-08T03:56:20;4.50;;;3.77;;
846;SDS011;410;48.954;9.474;2023-08-08T03:58:24;6.83;;;3.87;;
846;SDS011;410;48.954;9.474;2023-08-08T04:00:27;6.57;;;3.80;;
846;SDS011;410;48.954;9.474;2023-08-08T04:02:29;5.70;;;3.40;;
846;SDS011;410;48.954;9.474;2023-08-08T04:04:32;4.70;;;3.90;;
846;SDS011;410;48.954;9.474;2023-08-08T04:06:35;8.03;;;4.90;;
846;SDS011;410;48.954;9.474;2023-08-08T04:08:38;5.87;;;4.03;;
846;SDS011;410;48.954;9.474;2023-08-08T04:10:44;5.60;;;4.00;;
846;SDS011;410;48.954;9.474;2023-08-08T04:12:49;6.40;;;4.43;;
846;SDS011;410;48.954;9.474;2023-08-08T04:14:52;5.73;;;3.90;;
846;SDS011;410;48.954;9.474;2023-08-08T04:16:55;4.90;;;3.67;;
846;SDS011;410;48.954;9.474;2023-08-08T04:18:58;4.10;;;3.37;;
846;SDS011;410;48.954;9.474;2023-08-08T04:21:04;7.00;;;4.17;;
846;SDS011;410;48.954;9.474;2023-08-08T04:23:07;4.97;;;4.03;;
846;SDS011;410;48.954;9.474;2023-08-08T04:25:11;4.63;;;3.80;;
846;SDS011;410;48.954;9.474;2023-08-08T04:27:15;6.17;;;4.00;;
846;SDS011;410;48.954;9.474;2023-08-08T04:29:18;6.20;;;4.73;;
846;SDS011;410;48.954;9.474;2023-08-08T04:31:21;5.67;;;4.37;;
846;SDS011;410;48.954;9.474;2023-08-08T04:33:26;5.53;;;4.60;;
846;SDS011;410;48.954;9.474;2023-08-08T04:35:29;6.37;;;4.70;;
846;SDS011;410;48.954;9.474;2023-08-08T04:37:32;4.40;;;3.50;;
846;SDS011;410;48.954;9.474;2023-08-08T04:39:35;6.77;;;4.17;;
846;SDS011;410;48.954;9.474;2023-08-08T04:41:39;6.37;;;4.20;;
846;SDS011;410;48.954;9.474;2023-08-08T04:43:43;8.73;;;4.50;;
846;SDS011;410;48.954;9.474;2023-08-08T04:45:46;4.33;;;3.90;;
846;SDS011;410;48.954;9.474;2023-08-08T04:47:49;6.63;;;4.87;;
846;SDS011;410;48.954;9.474;2023-08-08T04:49:51;5.20;;;4.00;;
846;SDS011;410;48.954;9.474;2023-08-08T04:51:54;6.73;;;3.60;;
846;SDS011;410;48.954;9.474;2023-08-08T04:53:58;4.80;;;3.90;;
846;SDS011;410;48.954;9.474;2023-08-08T04:56:02;5.93;;;3.83;;
846;SDS011;410;48.954;9.474;2023-08-08T04:58:06;7.17;;;4.20;;
846;SDS011;410;48.954;9.474;2023-08-08T05:00:12;8.93;;;4.50;;
846;SDS011;410;48.954;9.474;2023-08-08T05:02:17;7.10;;;4.43;;
846;SDS011;410;48.954;9.474;2023-08-08T05:04:20;5.00;;;4.40;;
846;SDS011;410;48.954;9.474;2023-08-08T05:06:23;5.00;;;4.10;;
846;SDS011;410;48.954;9.474;2023-08-08T05:08:26;6.30;;;4.10;;
846;SDS011;410;48.954;9.474;2023-08-08T05:10:29;5.00;;;4.00;;
846;SDS011;410;48.954;9.474;2023-08-08T05:12:32;6.93;;;4.57;;
846;SDS011;410;48.954;9.474;2023-08-08T05:14:35;6.70;;;4.30;;
846;SDS011;410;48.954;9.474;2023-08-08T05:16:40;6.20;;;4.40;;
846;SDS011;410;48.954;9.474;2023-08-08T05:18:43;4.50;;;3.60;;
846;SDS011;410;48.954;9.474;2023-08-08T05:20:47;4.97;;;3.63;;
846;SDS011;410;48.954;9.474;2023-08-08T05:22:50;7.83;;;4.67;;
846;SDS011;410;48.954;9.474;2023-08-08T05:24:53;5.43;;;4.10;;
846;SDS011;410;48.954;9.474;2023-08-08T05:26:56;6.53;;;5.80;;
846;SDS011;410;48.954;9.474;2023-08-08T05:28:59;5.07;;;3.70;;
846;SDS011;410;48.954;9.474;2023-08-08T05:31:02;6.43;;;4.00;;
846;SDS011;410;48.954;9.474;2023-08-08T05:33:07;5.03;;;3.90;;
846;SDS011;410;48.954;9.474;2023-08-08T05:35:10;4.90;;;4.00;;
846;SDS011;410;48.954;9.474;2023-08-08T05:37:13;6.20;;;4.10;;
846;SDS011;410;48.954;9.474;2023-08-08T05:39:18;6.70;;;3.80;;
846;SDS011;410;48.954;9.474;2023-08-08T05:41:21;5.20;;;3.93;;
846;SDS011;410;48.954;9.474;2023-08-08T05:43:24;5.23;;;4.07;;
846;SDS011;410;48.954;9.474;2023-08-08T05:45:31;5.70;;;3.87;;
846;SDS011;410;48.954;9.474;2023-08-08T05:47:34;4.90;;;3.80;;
846;SDS011;410;48.954;9.474;2023-08-08T05:49:38;5.77;;;4.53;;
846;SDS011;410;48.954;9.474;2023-08-08T05:51:43;5.63;;;3.63;;
846;SDS011;410;48.954;9.474;2023-08-08T05:53:46;4.70;;;3.60;;
846;SDS011;410;48.954;9.474;2023-08-08T05:55:49;5.23;;;3.47;;
846;SDS011;410;48.954;9.474;2023-08-08T05:57:52;5.60;;;3.63;;
846;SDS011;410;48.954;9.474;2023-08-08T05:59:56;4.47;;;3.73;;
846;SDS011;410;48.954;9.474;2023-08-08T06:02:13;4.30;;;3.30;;
846;SDS011;410;48.954;9.474;2023-08-08T06:04:16;4.60;;;2.97;;
846;SDS011;410;48.954;9.474;2023-08-08T06:06:20;3.13;;;2.70;;
846;SDS011;410;48.954;9.474;2023-08-08T06:08:23;4.70;;;3.20;;
846;SDS011;410;48.954;9.474;2023-08-08T06:10:26;4.37;;;3.43;;
846;SDS011;410;48.954;9.474;2023-08-08T06:12:30;7.13;;;3.33;;
846;SDS011;410;48.954;9.474;2023-08-08T06:14:33;4.37;;;3.30;;
846;SDS011;410;48.954;9.474;2023-08-08T06:16:37;4.33;;;3.00;;
846;SDS011;410;48.954;9.474;2023-08-08T06:18:40;5.17;;;3.20;;
846;SDS011;410;48.954;9.474;2023-08-08T06:20:44;5.30;;;3.30;;
846;SDS011;410;48.954;9.474;2023-08-08T06:22:48;10.40;;;4.30;;
846;SDS011;410;48.954;9.474;2023-08-08T06:24:52;4.77;;;3.27;;
846;SDS011;410;48.954;9.474;2023-08-08T06:26:55;4.70;;;2.87;;
846;SDS011;410;48.954;9.474;2023-08-08T06:28:58;5.73;;;3.40;;
846;SDS011;410;48.954;9.474;2023-08-08T06:31:01;4.83;;;3.83;;
846;SDS011;410;48.954;9.474;2023-08-08T06:33:04;3.70;;;3.00;;
846;SDS011;410;48.954;9.474;2023-08-08T06:35:08;4.87;;;2.70;;
846;SDS011;410;48.954;9.474;2023-08-08T06:37:14;3.83;;;2.50;;
846;SDS011;410;48.954;9.474;2023-08-08T06:39:18;3.27;;;2.40;;
846;SDS011;410;48.954;9.474;2023-08-08T06:41:22;3.30;;;2.63;;
846;SDS011;410;48.954;9.474;2023-08-08T06:43:26;5.20;;;2.70;;
846;SDS011;410;48.954;9.474;2023-08-08T06:45:29;4.40;;;2.50;;
846;SDS011;410;48.954;9.474;2023-08-08T06:47:32;5.33;;;2.80;;
846;SDS011;410;48.954;9.474;2023-08-08T06:49:35;3.40;;;2.77;;
846;SDS011;410;48.954;9.474;2023-08-08T06:51:38;2.70;;;2.10;;
846;SDS011;410;48.954;9.474;2023-08-08T06:53:41;4.67;;;2.37;;
846;SDS011;410;48.954;9.474;2023-08-08T06:55:46;3.67;;;2.50;;
846;SDS011;410;48.954;9.474;2023-08-08T06:57:49;3.77;;;2.03;;
846;SDS011;410;48.954;9.474;2023-08-08T06:59:52;2.57;;;2.00;;
846;SDS011;410;48.954;9.474;2023-08-08T07:01:55;2.93;;;1.90;;
846;SDS011;410;48.954;9.474;2023-08-08T07:03:59;4.07;;;1.97;;
846;SDS011;410;48.954;9.474;2023-08-08T07:06:02;2.73;;;1.60;;
846;SDS011;410;48.954;9.474;2023-08-08T07:08:05;2.90;;;1.93;;
846;SDS011;410;48.954;9.474;2023-08-08T07:10:10;2.40;;;1.57;;
846;SDS011;410;48.954;9.474;2023-08-08T07:12:15;3.20;;;1.70;;
846;SDS011;410;48.954;9.474;2023-08-08T07:14:18;2.50;;;1.60;;
846;SDS011;410;48.954;9.474;2023-08-08T07:16:22;2.80;;;2.23;;
846;SDS011;410;48.954;9.474;2023-08-08T07:18:25;2.70;;;1.70;;
846;SDS011;410;48.954;9.474;2023-08-08T07:20:28;1.93;;;1.40;;
846;SDS011;410;48.954;9.474;2023-08-08T07:22:31;3.07;;;1.70;;
846;SDS011;410;48.954;9.474;2023-08-08T07:24:34;2.10;;;1.43;;
846;SDS011;410;48.954;9.474;2023-08-08T07:26:40;2.40;;;1.53;;
846;SDS011;410;48.954;9.474;2023-08-08T07:28:44;3.23;;;1.77;;
846;SDS011;410;48.954;9.474;2023-08-08T07:30:47;2.50;;;1.67;;
846;SDS011;410;48.954;9.474;2023-08-08T07:32:50;3.33;;;1.63;;
846;SDS011;410;48.954;9.474;2023-08-08T07:34:53;2.50;;;1.40;;
846;SDS011;410;48.954;9.474;2023-08-08T07:36:56;2.10;;;1.43;;
846;SDS011;410;48.954;9.474;2023-08-08T07:39:00;2.93;;;1.50;;
846;SDS011;410;48.954;9.474;2023-08-08T07:41:03;2.67;;;1.60;;
846;SDS011;410;48.954;9.474;2023-08-08T07:43:06;2.10;;;1.37;;
846;SDS011;410;48.954;9.474;2023-08-08T07:45:10;4.07;;;1.73;;
846;SDS011;410;48.954;9.474;2023-08-08T07:47:13;2.43;;;1.40;;
846;SDS011;410;48.954;9.474;2023-08-08T07:49:17;1.90;;;1.20;;
846;SDS011;410;48.954;9.474;2023-08-08T07:51:20;2.33;;;1.30;;
846;SDS011;410;48.954;9.474;2023-08-08T07:53:24;2.87;;;1.53;;
846;SDS011;410;48.954;9.474;2023-08-08T07:55:27;2.20;;;1.20;;
846;SDS011;410;48.954;9.474;2023-08-08T07:57:31;1.60;;;1.27;;
846;SDS011;410;48.954;9.474;2023-08-08T07:59:36;2.00;;;1.30;;
846;SDS011;410;48.954;9.474;2023-08-08T08:01:40;2.20;;;1.40;;
846;SDS011;410;48.954;9.474;2023-08-08T08:03:44;1.90;;;1.30;;
846;SDS011;410;48.954;9.474;2023-08-08T08:05:47;2.07;;;1.50;;
846;SDS011;410;48.954;9.474;2023-08-08T08:07:50;1.50;;;1.00;;
846;SDS011;410;48.954;9.474;2023-08-08T08:09:53;2.00;;;1.10;;
846;SDS011;410;48.954;9.474;2023-08-08T08:11:56;1.80;;;1.10;;
846;SDS011;410;48.954;9.474;2023-08-08T08:14:00;2.63;;;1.67;;
846;SDS011;410;48.954;9.474;2023-08-08T08:16:03;2.30;;;1.20;;
846;SDS011;410;48.954;9.474;2023-08-08T08:18:08;1.70;;;1.10;;
846;SDS011;410;48.954;9.474;2023-08-08T08:20:13;2.40;;;1.60;;
846;SDS011;410;48.954;9.474;2023-08-08T08:22:16;1.83;;;1.20;;
846;SDS011;410;48.954;9.474;2023-08-08T08:24:18;2.13;;;1.40;;
846;SDS011;410;48.954;9.474;2023-08-08T08:26:21;1.90;;;1.10;;
846;SDS011;410;48.954;9.474;2023-08-08T08:28:25;1.93;;;1.47;;
846;SDS011;410;48.954;9.474;2023-08-08T08:30:28;3.80;;;1.50;;
846;SDS011;410;48.954;9.474;2023-08-08T08:32:31;1.83;;;1.40;;
846;SDS011;410;48.954;9.474;2023-08-08T08:34:37;2.20;;;1.50;;
846;SDS011;410;48.954;9.474;2023-08-08T08:36:40;2.83;;;1.47;;
846;SDS011;410;48.954;9.474;2023-08-08T08:38:43;2.03;;;1.50;;
846;SDS011;410;48.954;9.474;2023-08-08T08:40:48;1.70;;;1.30;;
846;SDS011;410;48.954;9.474;2023-08-08T08:42:51;1.70;;;1.07;;
846;SDS011;410;48.954;9.474;2023-08-08T08:44:55;2.13;;;1.13;;
846;SDS011;410;48.954;9.474;2023-08-08T08:47:01;1.97;;;1.40;;
846;SDS011;410;48.954;9.474;2023-08-08T08:49:05;3.07;;;1.70;;
846;SDS011;410;48.954;9.474;2023-08-08T08:51:11;2.27;;;1.40;;
846;SDS011;410;48.954;9.474;2023-08-08T08:53:16;2.00;;;1.47;;
846;SDS011;410;48.954;9.474;2023-08-08T08:55:20;3.57;;;1.67;;
846;SDS011;410;48.954;9.474;2023-08-08T08:57:23;2.40;;;1.57;;
846;SDS011;410;48.954;9.474;2023-08-08T08:59:26;2.43;;;1.50;;
846;SDS011;410;48.954;9.474;2023-08-08T09:01:29;2.17;;;1.40;;
846;SDS011;410;48.954;9.474;2023-08-08T09:03:32;2.33;;;1.50;;
846;SDS011;410;48.954;9.474;2023-08-08T09:05:37;2.00;;;1.40;;
846;SDS011;410;48.954;9.474;2023-08-08T09:07:43;2.00;;;1.40;;
846;SDS011;410;48.954;9.474;2023-08-08T09:09:46;2.50;;;1.70;;
846;SDS011;410;48.954;9.474;2023-08-08T09:11:50;2.20;;;1.50;;
846;SDS011;410;48.954;9.474;2023-08-08T09:13:55;1.90;;;1.30;;
846;SDS011;410;48.954;9.474;2023-08-08T09:15:58;2.30;;;1.50;;
846;SDS011;410;48.954;9.474;2023-08-08T09:18:02;2.10;;;1.30;;
846;SDS011;410;48.954;9.474;2023-08-08T09:20:06;2.43;;;1.20;;
846;SDS011;410;48.954;9.474;2023-08-08T09:22:17;1.70;;;1.10;;
846;SDS011;410;48.954;9.474;2023-08-08T09:24:21;1.67;;;1.30;;
846;SDS011;410;48.954;9.474;2023-08-08T09:26:27;2.43;;;1.10;;
846;SDS011;410;48.954;9.474;2023-08-08T09:28:31;2.60;;;1.47;;
846;SDS011;410;48.954;9.474;2023-08-08T09:30:34;2.70;;;1.40;;
846;SDS011;410;48.954;9.474;2023-08-08T09:32:37;2.80;;;1.57;;
846;SDS011;410;48.954;9.474;2023-08-08T09:34:42;2.37;;;1.53;;
846;SDS011;410;48.954;9.474;2023-08-08T09:36:45;3.40;;;1.30;;
846;SDS011;410;48.954;9.474;2023-08-08T09:38:48;2.00;;;1.40;;
846;SDS011;410;48.954;9.474;2023-08-08T09:40:52;2.93;;;1.57;;
846;SDS011;410;48.954;9.474;2023-08-08T09:42:56;2.23;;;1.30;;
846;SDS011;410;48.954;9.474;2023-08-08T09:45:00;2.60;;;1.20;;
846;SDS011;410;48.954;9.474;2023-08-08T09:47:05;2.00;;;1.30;;
846;SDS011;410;48.954;9.474;2023-08-08T09:49:08;2.10;;;1.30;;
846;SDS011;410;48.954;9.474;2023-08-08T09:51:13;2.60;;;1.63;;
846;SDS011;410;48.954;9.474;2023-08-08T09:53:17;1.70;;;1.20;;
846;SDS011;410;48.954;9.474;2023-08-08T09:55:21;2.27;;;1.50;;
846;SDS011;410;48.954;9.474;2023-08-08T09:57:26;1.70;;;1.20;;
846;SDS011;410;48.954;9.474;2023-08-08T09:59:29;2.43;;;1.13;;
846;SDS011;410;48.954;9.474;2023-08-08T10:01:33;2.10;;;1.40;;
846;SDS011;410;48.954;9.474;2023-08-08T10:03:36;2.30;;;1.27;;
846;SDS011;410;48.954;9.474;2023-08-08T10:05:40;2.00;;;1.10;;
846;SDS011;410;48.954;9.474;2023-08-08T10:07:43;2.20;;;1.17;;
846;SDS011;410;48.954;9.474;2023-08-08T10:09:46;2.80;;;1.40;;
846;SDS011;410;48.954;9.474;2023-08-08T10:11:50;2.70;;;1.60;;
846;SDS011;410;48.954;9.474;2023-08-08T10:13:54;2.27;;;1.40;;
846;SDS011;410;48.954;9.474;2023-08-08T10:16:03;2.07;;;1.50;;
846;SDS011;410;48.954;9.474;2023-08-08T10:18:07;2.67;;;1.50;;
846;SDS011;410;48.954;9.474;2023-08-08T10:20:10;2.10;;;1.47;;
846;SDS011;410;48.954;9.474;2023-08-08T10:22:14;2.10;;;1.20;;
846;SDS011;410;48.954;9.474;2023-08-08T10:24:19;3.43;;;1.40;;
846;SDS011;410;48.954;9.474;2023-08-08T10:26:23;2.27;;;1.50;;
846;SDS011;410;48.954;9.474;2023-08-08T10:28:31;2.10;;;1.40;;
846;SDS011;410;48.954;9.474;2023-08-08T10:30:46;2.90;;;1.30;;
846;SDS011;410;48.954;9.474;2023-08-08T10:32:50;2.00;;;1.30;;
846;SDS011;410;48.954;9.474;2023-08-08T10:34:54;2.47;;;1.30;;
846;SDS011;410;48.954;9.474;2023-08-08T10:37:00;5.32;;;1.30;;
846;SDS011;410;48.954;9.474;2023-08-08T10:39:03;1.83;;;1.40;;
846;SDS011;410;48.954;9.474;2023-08-08T10:41:08;2.00;;;1.20;;
846;SDS011;410;48.954;9.474;2023-08-08T10:43:13;2.33;;;1.20;;
846;SDS011;410;48.954;9.474;2023-08-08T10:45:16;3.00;;;1.30;;
846;SDS011;410;48.954;9.474;2023-08-08T10:47:22;2.23;;;1.10;;
846;SDS011;410;48.954;9.474;2023-08-08T10:49:26;3.60;;;1.30;;
846;SDS011;410;48.954;9.474;2023-08-08T10:51:35;2.70;;;1.30;;
846;SDS011;410;48.954;9.474;2023-08-08T10:53:39;3.60;;;1.20;;
846;SDS011;410;48.954;9.474;2023-08-08T10:55:42;1.87;;;1.23;;
846;SDS011;410;48.954;9.474;2023-08-08T10:57:52;1.70;;;1.27;;
846;SDS011;410;48.954;9.474;2023-08-08T10:59:56;2.80;;;1.23;;
846;SDS011;410;48.954;9.474;2023-08-08T11:02:19;2.90;;;1.23;;
846;SDS011;410;48.954;9.474;2023-08-08T11:04:24;2.37;;;1.10;;
846;SDS011;410;48.954;9.474;2023-08-08T11:06:28;5.10;;;1.43;;
846;SDS011;410;48.954;9.474;2023-08-08T11:08:31;1.90;;;1.50;;
846;SDS011;410;48.954;9.474;2023-08-08T11:10:36;3.50;;;1.37;;
846;SDS011;410;48.954;9.474;2023-08-08T11:12:42;1.60;;;1.00;;
846;SDS011;410;48.954;9.474;2023-08-08T11:14:45;2.07;;;1.13;;
846;SDS011;410;48.954;9.474;2023-08-08T11:16:49;2.40;;;1.70;;
846;SDS011;410;48.954;9.474;2023-08-08T11:18:55;2.03;;;1.20;;
846;SDS011;410;48.954;9.474;2023-08-08T11:20:59;1.93;;;1.20;;
846;SDS011;410;48.954;9.474;2023-08-08T11:23:18;2.67;;;1.30;;
846;SDS011;410;48.954;9.474;2023-08-08T11:25:22;2.20;;;1.20;;
846;SDS011;410;48.954;9.474;2023-08-08T11:27:28;1.90;;;1.20;;
846;SDS011;410;48.954;9.474;2023-08-08T11:29:34;1.77;;;1.20;;
846;SDS011;410;48.954;9.474;2023-08-08T11:31:37;1.57;;;1.20;;
846;SDS011;410;48.954;9.474;2023-08-08T11:33:40;2.60;;;1.20;;
846;SDS011;410;48.954;9.474;2023-08-08T11:35:44;3.80;;;1.20;;
846;SDS011;410;48.954;9.474;2023-08-08T11:37:52;2.07;;;1.40;;
846;SDS011;410;48.954;9.474;2023-08-08T11:39:56;4.80;;;1.33;;
846;SDS011;410;48.954;9.474;2023-08-08T11:41:59;3.17;;;1.37;;
846;SDS011;410;48.954;9.474;2023-08-08T11:44:04;1.90;;;1.20;;
846;SDS011;410;48.954;9.474;2023-08-08T11:46:09;2.03;;;1.30;;
846;SDS011;410;48.954;9.474;2023-08-08T11:48:12;1.70;;;1.10;;
846;SDS011;410;48.954;9.474;2023-08-08T11:50:15;2.00;;;1.30;;
846;SDS011;410;48.954;9.474;2023-08-08T11:52:19;2.73;;;1.60;;
846;SDS011;410;48.954;9.474;2023-08-08T11:54:23;2.00;;;1.20;;
846;SDS011;410;48.954;9.474;2023-08-08T11:56:32;2.07;;;1.23;;
846;SDS011;410;48.954;9.474;2023-08-08T11:58:36;1.83;;;1.40;;
846;SDS011;410;48.954;9.474;2023-08-08T12:00:39;2.10;;;1.20;;
846;SDS011;410;48.954;9.474;2023-08-08T12:02:42;2.47;;;1.20;;
846;SDS011;410;48.954;9.474;2023-08-08T12:04:46;2.03;;;1.43;;
846;SDS011;410;48.954;9.474;2023-08-08T12:06:49;1.90;;;1.20;;
846;SDS011;410;48.954;9.474;2023-08-08T12:08:52;2.10;;;1.40;;
846;SDS011;410;48.954;9.474;2023-08-08T12:11:00;3.37;;;1.40;;
846;SDS011;410;48.954;9.474;2023-08-08T12:13:03;2.63;;;1.20;;
846;SDS011;410;48.954;9.474;2023-08-08T12:15:09;2.37;;;1.33;;
846;SDS011;410;48.954;9.474;2023-08-08T12:17:17;1.77;;;1.20;;
846;SDS011;410;48.954;9.474;2023-08-08T12:19:22;1.60;;;1.20;;
846;SDS011;410;48.954;9.474;2023-08-08T12:21:26;2.27;;;1.43;;
846;SDS011;410;48.954;9.474;2023-08-08T12:23:29;2.30;;;1.40;;
846;SDS011;410;48.954;9.474;2023-08-08T12:25:32;1.70;;;1.30;;
846;SDS011;410;48.954;9.474;2023-08-08T12:27:37;1.70;;;1.30;;
846;SDS011;410;48.954;9.474;2023-08-08T12:29:41;2.93;;;1.57;;
846;SDS011;410;48.954;9.474;2023-08-08T12:31:44;1.80;;;1.30;;
846;SDS011;410;48.954;9.474;2023-08-08T12:33:47;2.33;;;1.43;;
846;SDS011;410;48.954;9.474;2023-08-08T12:35:53;1.90;;;1.20;;
846;SDS011;410;48.954;9.474;2023-08-08T12:37:56;2.40;;;1.60;;
846;SDS011;410;48.954;9.474;2023-08-08T12:39:59;1.80;;;1.17;;
846;SDS011;410;48.954;9.474;2023-08-08T12:42:06;2.13;;;1.17;;
846;SDS011;410;48.954;9.474;2023-08-08T12:44:10;1.93;;;1.27;;
846;SDS011;410;48.954;9.474;2023-08-08T12:46:14;2.13;;;1.47;;
846;SDS011;410;48.954;9.474;2023-08-08T12:48:17;2.43;;;1.50;;
846;SDS011;410;48.954;9.474;2023-08-08T12:50:19;2.00;;;1.37;;
846;SDS011;410;48.954;9.474;2023-08-08T12:52:22;1.50;;;0.93;;
846;SDS011;410;48.954;9.474;2023-08-08T12:54:27;1.77;;;1.23;;
846;SDS011;410;48.954;9.474;2023-08-08T12:56:30;2.20;;;1.43;;
846;SDS011;410;48.954;9.474;2023-08-08T12:58:33;1.83;;;1.20;;
846;SDS011;410;48.954;9.474;2023-08-08T13:00:37;3.53;;;1.30;;
846;SDS011;410;48.954;9.474;2023-08-08T13:02:39;1.80;;;1.40;;
846;SDS011;410;48.954;9.474;2023-08-08T13:04:43;2.53;;;1.20;;
846;SDS011;410;48.954;9.474;2023-08-08T13:06:46;2.47;;;1.33;;
846;SDS011;410;48.954;9.474;2023-08-08T13:08:50;2.80;;;1.10;;
846;SDS011;410;48.954;9.474;2023-08-08T13:10:53;1.73;;;1.00;;
846;SDS011;410;48.954;9.474;2023-08-08T13:12:56;2.13;;;1.17;;
846;SDS011;410;48.954;9.474;2023-08-08T13:14:59;2.10;;;0.90;;